sensor_id;sensor_type;location;lat;lon;timestamp;temperature;humidity
56076;DHT22;41951;49.022;12.066;2022-12-07T00:00:27;3.50;99.90
56076;DHT22;41951;49.022;12.066;2022-12-07T00:02:53;3.50;99.90
56076;DHT22;41951;49.022;12.066;2022-12-07T00:05:19;3.50;99.90
56076;DHT22;41951;49.022;12.066;2022-12-07T00:07:44;3.50;99.90
56076;DHT22;41951;49.022;12.066;2022-12-07T00:10:10;3.50;99.90
56076;DHT22;41951;49.022;12.066;2022-12-07T00:12:35;3.50;99.90
56076;DHT22;41951;49.022;12.066;2022-12-07T00:15:01;3.50;99.90
56076;DHT22;41951;49.022;12.066;2022-12-07T00:17:26;3.50;99.90
56076;DHT22;41951;49.022;12.066;2022-12-07T00:19:52;3.50;99.90
56076;DHT22;41951;49.022;12.066;2022-12-07T00:22:17;3.50;99.90
56076;DHT22;41951;49.022;12.066;2022-12-07T00:24:43;3.50;99.90
56076;DHT22;41951;49.022;12.066;2022-12-07T00:27:08;3.50;99.90
56076;DHT22;41951;49.022;12.066;2022-12-07T00:29:34;3.40;99.90
56076;DHT22;41951;49.022;12.066;2022-12-07T00:32:00;3.40;99.90
56076;DHT22;41951;49.022;12.066;2022-12-07T00:34:25;3.40;99.90
56076;DHT22;41951;49.022;12.066;2022-12-07T00:36:51;3.40;99.90
56076;DHT22;41951;49.022;12.066;2022-12-07T00:39:16;3.40;99.90
56076;DHT22;41951;49.022;12.066;2022-12-07T00:41:42;3.30;99.90
56076;DHT22;41951;49.022;12.066;2022-12-07T00:44:07;3.30;99.90
56076;DHT22;41951;49.022;12.066;2022-12-07T00:46:33;3.30;99.90
56076;DHT22;41951;49.022;12.066;2022-12-07T00:48:59;3.30;99.90
56076;DHT22;41951;49.022;12.066;2022-12-07T00:51:25;3.40;99.90
56076;DHT22;41951;49.022;12.066;2022-12-07T00:53:51;3.30;99.90
56076;DHT22;41951;49.022;12.066;2022-12-07T00:56:20;3.30;99.90
56076;DHT22;41951;49.022;12.066;2022-12-07T00:58:57;3.30;99.90
56076;DHT22;41951;49.022;12.066;2022-12-07T01:01:24;3.30;99.90
56076;DHT22;41951;49.022;12.066;2022-12-07T01:03:50;3.30;99.90
56076;DHT22;41951;49.022;12.066;2022-12-07T01:06:17;3.20;99.90
56076;DHT22;41951;49.022;12.066;2022-12-07T01:08:44;3.30;99.90
56076;DHT22;41951;49.022;12.066;2022-12-07T01:11:16;3.20;99.90
56076;DHT22;41951;49.022;12.066;2022-12-07T01:13:42;3.30;99.90
56076;DHT22;41951;49.022;12.066;2022-12-07T01:16:10;3.30;99.90
56076;DHT22;41951;49.022;12.066;2022-12-07T01:18:37;3.30;99.90
56076;DHT22;41951;49.022;12.066;2022-12-07T01:23:39;3.20;99.90
56076;DHT22;41951;49.022;12.066;2022-12-07T01:26:12;3.20;99.90
56076;DHT22;41951;49.022;12.066;2022-12-07T01:28:38;3.20;99.90
56076;DHT22;41951;49.022;12.066;2022-12-07T01:31:06;3.20;99.90
56076;DHT22;41951;49.022;12.066;2022-12-07T01:33:35;3.10;99.90
56076;DHT22;41951;49.022;12.066;2022-12-07T01:36:06;3.20;99.90
56076;DHT22;41951;49.022;12.066;2022-12-07T01:38:32;3.20;99.90
56076;DHT22;41951;49.022;12.066;2022-12-07T01:40:59;3.20;99.90
56076;DHT22;41951;49.022;12.066;2022-12-07T01:43:27;3.20;99.90
56076;DHT22;41951;49.022;12.066;2022-12-07T01:45:53;3.20;99.90
56076;DHT22;41951;49.022;12.066;2022-12-07T01:48:29;3.20;99.90
56076;DHT22;41951;49.022;12.066;2022-12-07T01:50:56;3.20;99.90
56076;DHT22;41951;49.022;12.066;2022-12-07T01:53:27;3.30;99.90
56076;DHT22;41951;49.022;12.066;2022-12-07T01:55:55;3.30;99.90
56076;DHT22;41951;49.022;12.066;2022-12-07T01:58:21;3.30;99.90
56076;DHT22;41951;49.022;12.066;2022-12-07T02:00:47;3.30;99.90
56076;DHT22;41951;49.022;12.066;2022-12-07T02:03:18;3.30;99.90
56076;DHT22;41951;49.022;12.066;2022-12-07T02:05:45;3.30;99.90
56076;DHT22;41951;49.022;12.066;2022-12-07T02:08:12;3.30;99.90
56076;DHT22;41951;49.022;12.066;2022-12-07T02:10:38;3.30;99.90
56076;DHT22;41951;49.022;12.066;2022-12-07T02:13:16;3.20;99.90
56076;DHT22;41951;49.022;12.066;2022-12-07T02:19:06;3.20;99.90
56076;DHT22;41951;49.022;12.066;2022-12-07T02:24:29;3.20;99.90
56076;DHT22;41951;49.022;12.066;2022-12-07T02:27:24;3.10;99.90
56076;DHT22;41951;49.022;12.066;2022-12-07T02:30:06;3.20;99.90
56076;DHT22;41951;49.022;12.066;2022-12-07T02:32:56;3.20;99.90
56076;DHT22;41951;49.022;12.066;2022-12-07T02:38:04;3.20;99.90
56076;DHT22;41951;49.022;12.066;2022-12-07T02:40:38;3.20;99.90
56076;DHT22;41951;49.022;12.066;2022-12-07T02:43:17;3.20;99.90
56076;DHT22;41951;49.022;12.066;2022-12-07T02:45:45;3.10;99.90
56076;DHT22;41951;49.022;12.066;2022-12-07T02:48:14;3.20;99.90
56076;DHT22;41951;49.022;12.066;2022-12-07T02:50:51;3.20;99.90
56076;DHT22;41951;49.022;12.066;2022-12-07T03:04:24;2.80;99.90
56076;DHT22;41951;49.022;12.066;2022-12-07T03:07:01;2.80;99.90
56076;DHT22;41951;49.022;12.066;2022-12-07T03:12:21;2.70;99.90
56076;DHT22;41951;49.022;12.066;2022-12-07T03:14:57;2.70;99.90
56076;DHT22;41951;49.022;12.066;2022-12-07T03:17:28;2.70;99.90
56076;DHT22;41951;49.022;12.066;2022-12-07T03:19:58;2.70;99.90
56076;DHT22;41951;49.022;12.066;2022-12-07T03:22:28;2.70;99.90
56076;DHT22;41951;49.022;12.066;2022-12-07T03:24:58;2.70;99.90
56076;DHT22;41951;49.022;12.066;2022-12-07T03:27:28;2.70;99.90
56076;DHT22;41951;49.022;12.066;2022-12-07T03:30:06;2.70;99.90
56076;DHT22;41951;49.022;12.066;2022-12-07T03:32:39;2.80;99.90
56076;DHT22;41951;49.022;12.066;2022-12-07T03:35:18;2.90;99.90
56076;DHT22;41951;49.022;12.066;2022-12-07T03:38:10;2.80;99.90
56076;DHT22;41951;49.022;12.066;2022-12-07T03:40:49;2.80;99.90
56076;DHT22;41951;49.022;12.066;2022-12-07T03:43:18;2.80;99.90
56076;DHT22;41951;49.022;12.066;2022-12-07T03:48:37;2.80;99.90
56076;DHT22;41951;49.022;12.066;2022-12-07T03:51:22;2.90;99.90
56076;DHT22;41951;49.022;12.066;2022-12-07T03:53:56;2.90;99.90
56076;DHT22;41951;49.022;12.066;2022-12-07T03:56:24;2.90;99.90
56076;DHT22;41951;49.022;12.066;2022-12-07T03:58:51;2.90;99.90
56076;DHT22;41951;49.022;12.066;2022-12-07T04:01:17;2.90;99.90
56076;DHT22;41951;49.022;12.066;2022-12-07T04:03:43;3.00;99.90
56076;DHT22;41951;49.022;12.066;2022-12-07T04:06:09;3.00;99.90
56076;DHT22;41951;49.022;12.066;2022-12-07T04:08:34;2.90;99.90
56076;DHT22;41951;49.022;12.066;2022-12-07T04:11:01;2.90;99.90
56076;DHT22;41951;49.022;12.066;2022-12-07T04:13:26;3.00;99.90
56076;DHT22;41951;49.022;12.066;2022-12-07T04:15:52;2.90;99.90
56076;DHT22;41951;49.022;12.066;2022-12-07T04:18:17;2.90;99.90
56076;DHT22;41951;49.022;12.066;2022-12-07T04:20:43;2.90;99.90
56076;DHT22;41951;49.022;12.066;2022-12-07T04:23:08;2.90;99.90
56076;DHT22;41951;49.022;12.066;2022-12-07T04:25:34;3.00;99.90
56076;DHT22;41951;49.022;12.066;2022-12-07T04:28:00;2.80;99.90
56076;DHT22;41951;49.022;12.066;2022-12-07T04:30:25;2.90;99.90
56076;DHT22;41951;49.022;12.066;2022-12-07T04:32:51;2.90;99.90
56076;DHT22;41951;49.022;12.066;2022-12-07T04:35:16;2.90;99.90
56076;DHT22;41951;49.022;12.066;2022-12-07T04:37:42;2.90;99.90
56076;DHT22;41951;49.022;12.066;2022-12-07T04:40:08;2.80;99.90
56076;DHT22;41951;49.022;12.066;2022-12-07T04:42:36;2.90;99.90
56076;DHT22;41951;49.022;12.066;2022-12-07T04:45:03;2.90;99.90
56076;DHT22;41951;49.022;12.066;2022-12-07T04:47:29;2.90;99.90
56076;DHT22;41951;49.022;12.066;2022-12-07T04:49:55;2.90;99.90
56076;DHT22;41951;49.022;12.066;2022-12-07T04:52:20;2.90;99.90
56076;DHT22;41951;49.022;12.066;2022-12-07T04:54:46;2.90;99.90
56076;DHT22;41951;49.022;12.066;2022-12-07T04:57:11;2.80;99.90
56076;DHT22;41951;49.022;12.066;2022-12-07T04:59:37;2.80;99.90
56076;DHT22;41951;49.022;12.066;2022-12-07T05:02:03;2.70;99.90
56076;DHT22;41951;49.022;12.066;2022-12-07T05:04:28;2.70;99.90
56076;DHT22;41951;49.022;12.066;2022-12-07T05:06:54;2.70;99.90
56076;DHT22;41951;49.022;12.066;2022-12-07T05:09:19;2.70;99.90
56076;DHT22;41951;49.022;12.066;2022-12-07T05:11:45;2.60;99.90
56076;DHT22;41951;49.022;12.066;2022-12-07T05:14:17;2.60;99.90
56076;DHT22;41951;49.022;12.066;2022-12-07T05:16:45;2.50;99.90
56076;DHT22;41951;49.022;12.066;2022-12-07T05:19:10;2.50;99.90
56076;DHT22;41951;49.022;12.066;2022-12-07T05:21:37;2.50;99.90
56076;DHT22;41951;49.022;12.066;2022-12-07T05:24:03;2.50;99.90
56076;DHT22;41951;49.022;12.066;2022-12-07T05:26:30;2.40;99.90
56076;DHT22;41951;49.022;12.066;2022-12-07T05:28:56;2.40;99.90
56076;DHT22;41951;49.022;12.066;2022-12-07T05:31:23;2.40;99.90
56076;DHT22;41951;49.022;12.066;2022-12-07T05:33:49;2.40;99.90
56076;DHT22;41951;49.022;12.066;2022-12-07T05:36:15;2.40;99.90
56076;DHT22;41951;49.022;12.066;2022-12-07T05:38:41;2.40;99.90
56076;DHT22;41951;49.022;12.066;2022-12-07T05:41:07;2.40;99.90
56076;DHT22;41951;49.022;12.066;2022-12-07T05:43:53;2.40;99.90
56076;DHT22;41951;49.022;12.066;2022-12-07T05:46:19;2.40;99.90
56076;DHT22;41951;49.022;12.066;2022-12-07T05:48:45;2.40;99.90
56076;DHT22;41951;49.022;12.066;2022-12-07T05:51:10;2.30;99.90
56076;DHT22;41951;49.022;12.066;2022-12-07T05:53:36;2.30;99.90
56076;DHT22;41951;49.022;12.066;2022-12-07T05:56:01;2.20;99.90
56076;DHT22;41951;49.022;12.066;2022-12-07T05:58:27;2.20;99.90
56076;DHT22;41951;49.022;12.066;2022-12-07T06:01:11;2.20;99.90
56076;DHT22;41951;49.022;12.066;2022-12-07T06:03:37;2.10;99.90
56076;DHT22;41951;49.022;12.066;2022-12-07T06:06:02;2.10;99.90
56076;DHT22;41951;49.022;12.066;2022-12-07T06:08:28;2.10;99.90
56076;DHT22;41951;49.022;12.066;2022-12-07T06:10:54;2.00;99.90
56076;DHT22;41951;49.022;12.066;2022-12-07T06:13:39;1.90;99.90
56076;DHT22;41951;49.022;12.066;2022-12-07T06:16:05;1.90;99.90
56076;DHT22;41951;49.022;12.066;2022-12-07T06:18:31;1.90;99.90
56076;DHT22;41951;49.022;12.066;2022-12-07T06:20:57;1.90;99.90
56076;DHT22;41951;49.022;12.066;2022-12-07T06:23:22;3.40;99.90
56076;DHT22;41951;49.022;12.066;2022-12-07T06:25:48;1.80;99.90
56076;DHT22;41951;49.022;12.066;2022-12-07T06:28:13;1.80;99.90
56076;DHT22;41951;49.022;12.066;2022-12-07T06:30:39;1.80;99.90
56076;DHT22;41951;49.022;12.066;2022-12-07T06:33:05;1.80;99.90
56076;DHT22;41951;49.022;12.066;2022-12-07T06:35:33;1.80;99.90
56076;DHT22;41951;49.022;12.066;2022-12-07T06:37:58;1.80;99.90
56076;DHT22;41951;49.022;12.066;2022-12-07T06:40:24;1.80;99.90
56076;DHT22;41951;49.022;12.066;2022-12-07T06:42:50;1.90;99.90
56076;DHT22;41951;49.022;12.066;2022-12-07T06:45:16;1.80;99.90
56076;DHT22;41951;49.022;12.066;2022-12-07T06:47:41;1.80;99.90
56076;DHT22;41951;49.022;12.066;2022-12-07T06:50:07;1.80;99.90
56076;DHT22;41951;49.022;12.066;2022-12-07T06:52:34;1.80;99.90
56076;DHT22;41951;49.022;12.066;2022-12-07T06:54:59;1.90;99.90
56076;DHT22;41951;49.022;12.066;2022-12-07T06:57:25;1.00;99.90
56076;DHT22;41951;49.022;12.066;2022-12-07T06:59:51;1.90;99.90
56076;DHT22;41951;49.022;12.066;2022-12-07T07:02:17;1.80;99.90
56076;DHT22;41951;49.022;12.066;2022-12-07T07:04:43;3.50;99.90
56076;DHT22;41951;49.022;12.066;2022-12-07T07:07:09;1.90;99.90
56076;DHT22;41951;49.022;12.066;2022-12-07T07:09:34;1.90;99.90
56076;DHT22;41951;49.022;12.066;2022-12-07T07:12:00;1.90;99.90
56076;DHT22;41951;49.022;12.066;2022-12-07T07:14:26;0.80;99.90
56076;DHT22;41951;49.022;12.066;2022-12-07T07:16:51;1.90;99.90
56076;DHT22;41951;49.022;12.066;2022-12-07T07:19:17;2.00;99.90
56076;DHT22;41951;49.022;12.066;2022-12-07T07:21:43;2.00;99.90
56076;DHT22;41951;49.022;12.066;2022-12-07T07:24:08;2.10;99.90
56076;DHT22;41951;49.022;12.066;2022-12-07T07:26:34;2.10;99.90
56076;DHT22;41951;49.022;12.066;2022-12-07T07:29:00;2.10;99.90
56076;DHT22;41951;49.022;12.066;2022-12-07T07:31:25;2.30;99.90
56076;DHT22;41951;49.022;12.066;2022-12-07T07:33:51;2.10;99.90
56076;DHT22;41951;49.022;12.066;2022-12-07T07:36:17;2.00;99.90
56076;DHT22;41951;49.022;12.066;2022-12-07T07:38:42;2.00;99.90
56076;DHT22;41951;49.022;12.066;2022-12-07T07:41:08;1.70;99.90
56076;DHT22;41951;49.022;12.066;2022-12-07T07:43:34;2.10;99.90
56076;DHT22;41951;49.022;12.066;2022-12-07T07:45:59;2.20;99.90
56076;DHT22;41951;49.022;12.066;2022-12-07T07:48:25;2.20;99.90
56076;DHT22;41951;49.022;12.066;2022-12-07T07:50:51;2.30;99.90
56076;DHT22;41951;49.022;12.066;2022-12-07T07:53:17;2.40;99.90
56076;DHT22;41951;49.022;12.066;2022-12-07T07:55:53;2.50;99.90
56076;DHT22;41951;49.022;12.066;2022-12-07T07:58:19;3.20;99.90
56076;DHT22;41951;49.022;12.066;2022-12-07T08:00:44;2.50;99.90
56076;DHT22;41951;49.022;12.066;2022-12-07T08:03:10;2.60;99.90
56076;DHT22;41951;49.022;12.066;2022-12-07T08:05:37;2.70;99.90
56076;DHT22;41951;49.022;12.066;2022-12-07T08:08:03;2.70;99.90
56076;DHT22;41951;49.022;12.066;2022-12-07T08:10:28;2.60;99.90
56076;DHT22;41951;49.022;12.066;2022-12-07T08:12:54;0.80;99.90
56076;DHT22;41951;49.022;12.066;2022-12-07T08:15:40;2.70;99.90
56076;DHT22;41951;49.022;12.066;2022-12-07T08:18:06;2.60;99.90
56076;DHT22;41951;49.022;12.066;2022-12-07T08:20:34;2.70;99.90
56076;DHT22;41951;49.022;12.066;2022-12-07T08:23:00;2.70;99.90
56076;DHT22;41951;49.022;12.066;2022-12-07T08:25:26;2.70;99.90
56076;DHT22;41951;49.022;12.066;2022-12-07T08:27:53;2.70;99.90
56076;DHT22;41951;49.022;12.066;2022-12-07T08:30:19;2.70;99.90
56076;DHT22;41951;49.022;12.066;2022-12-07T08:32:46;2.80;99.90
56076;DHT22;41951;49.022;12.066;2022-12-07T08:35:13;2.80;99.90
56076;DHT22;41951;49.022;12.066;2022-12-07T08:37:39;2.80;99.90
56076;DHT22;41951;49.022;12.066;2022-12-07T08:40:05;2.80;99.90
56076;DHT22;41951;49.022;12.066;2022-12-07T08:42:32;2.80;99.90
56076;DHT22;41951;49.022;12.066;2022-12-07T08:45:08;2.90;99.90
56076;DHT22;41951;49.022;12.066;2022-12-07T08:47:34;2.90;99.90
56076;DHT22;41951;49.022;12.066;2022-12-07T08:50:02;3.90;99.90
56076;DHT22;41951;49.022;12.066;2022-12-07T08:52:32;3.00;99.90
56076;DHT22;41951;49.022;12.066;2022-12-07T08:54:59;3.00;99.90
56076;DHT22;41951;49.022;12.066;2022-12-07T08:57:27;3.00;99.90
56076;DHT22;41951;49.022;12.066;2022-12-07T08:59:53;3.00;99.90
56076;DHT22;41951;49.022;12.066;2022-12-07T09:02:19;3.00;99.90
56076;DHT22;41951;49.022;12.066;2022-12-07T09:04:44;3.10;99.90
56076;DHT22;41951;49.022;12.066;2022-12-07T09:07:10;3.10;99.90
56076;DHT22;41951;49.022;12.066;2022-12-07T09:09:36;3.70;99.90
56076;DHT22;41951;49.022;12.066;2022-12-07T09:12:02;3.20;99.90
56076;DHT22;41951;49.022;12.066;2022-12-07T09:14:28;3.20;99.90
56076;DHT22;41951;49.022;12.066;2022-12-07T09:16:53;3.20;99.90
56076;DHT22;41951;49.022;12.066;2022-12-07T09:19:19;3.20;99.90
56076;DHT22;41951;49.022;12.066;2022-12-07T09:21:45;4.60;99.90
56076;DHT22;41951;49.022;12.066;2022-12-07T09:24:12;3.30;99.90
56076;DHT22;41951;49.022;12.066;2022-12-07T09:26:38;4.30;99.90
56076;DHT22;41951;49.022;12.066;2022-12-07T09:29:05;3.30;99.90
56076;DHT22;41951;49.022;12.066;2022-12-07T09:31:31;3.30;99.90
56076;DHT22;41951;49.022;12.066;2022-12-07T09:33:59;3.20;99.90
56076;DHT22;41951;49.022;12.066;2022-12-07T09:36:25;3.20;99.90
56076;DHT22;41951;49.022;12.066;2022-12-07T09:38:51;3.20;99.90
56076;DHT22;41951;49.022;12.066;2022-12-07T09:41:17;3.30;99.90
56076;DHT22;41951;49.022;12.066;2022-12-07T09:43:43;3.30;99.90
56076;DHT22;41951;49.022;12.066;2022-12-07T09:46:14;3.40;99.90
56076;DHT22;41951;49.022;12.066;2022-12-07T09:48:42;3.40;99.90
56076;DHT22;41951;49.022;12.066;2022-12-07T09:51:17;3.40;99.90
56076;DHT22;41951;49.022;12.066;2022-12-07T09:53:44;5.50;99.90
56076;DHT22;41951;49.022;12.066;2022-12-07T09:56:13;3.60;99.90
56076;DHT22;41951;49.022;12.066;2022-12-07T09:58:40;4.40;99.90
56076;DHT22;41951;49.022;12.066;2022-12-07T10:03:37;3.50;99.90
56076;DHT22;41951;49.022;12.066;2022-12-07T10:06:04;3.40;99.90
56076;DHT22;41951;49.022;12.066;2022-12-07T10:08:31;3.40;99.90
56076;DHT22;41951;49.022;12.066;2022-12-07T10:10:57;3.40;99.90
56076;DHT22;41951;49.022;12.066;2022-12-07T10:13:44;3.30;99.90
56076;DHT22;41951;49.022;12.066;2022-12-07T10:18:50;3.40;99.90
56076;DHT22;41951;49.022;12.066;2022-12-07T10:21:21;3.40;99.90
56076;DHT22;41951;49.022;12.066;2022-12-07T10:29:21;3.40;99.90
56076;DHT22;41951;49.022;12.066;2022-12-07T10:31:59;3.40;99.90
56076;DHT22;41951;49.022;12.066;2022-12-07T10:34:33;3.50;99.90
56076;DHT22;41951;49.022;12.066;2022-12-07T10:42:33;3.60;99.90
56076;DHT22;41951;49.022;12.066;2022-12-07T10:45:17;3.60;99.90
56076;DHT22;41951;49.022;12.066;2022-12-07T10:48:00;3.60;99.90
56076;DHT22;41951;49.022;12.066;2022-12-07T10:50:53;3.60;99.90
56076;DHT22;41951;49.022;12.066;2022-12-07T10:56:44;3.70;99.90
56076;DHT22;41951;49.022;12.066;2022-12-07T11:02:22;3.90;99.90
56076;DHT22;41951;49.022;12.066;2022-12-07T11:05:14;3.90;99.90
56076;DHT22;41951;49.022;12.066;2022-12-07T11:11:09;3.90;99.90
56076;DHT22;41951;49.022;12.066;2022-12-07T11:16:39;3.90;99.90
56076;DHT22;41951;49.022;12.066;2022-12-07T11:19:20;4.00;99.90
56076;DHT22;41951;49.022;12.066;2022-12-07T11:21:55;4.00;99.90
56076;DHT22;41951;49.022;12.066;2022-12-07T11:24:38;4.00;99.90
56076;DHT22;41951;49.022;12.066;2022-12-07T11:27:37;4.00;99.90
56076;DHT22;41951;49.022;12.066;2022-12-07T11:30:13;4.10;99.90
56076;DHT22;41951;49.022;12.066;2022-12-07T11:32:53;4.20;99.90
56076;DHT22;41951;49.022;12.066;2022-12-07T11:37:55;4.20;99.90
56076;DHT22;41951;49.022;12.066;2022-12-07T11:43:19;4.10;99.90
56076;DHT22;41951;49.022;12.066;2022-12-07T11:46:11;4.10;99.90
56076;DHT22;41951;49.022;12.066;2022-12-07T11:48:47;4.10;99.90
56076;DHT22;41951;49.022;12.066;2022-12-07T11:51:16;4.10;99.90
56076;DHT22;41951;49.022;12.066;2022-12-07T11:53:48;4.20;99.90
56076;DHT22;41951;49.022;12.066;2022-12-07T11:56:17;4.20;99.90
56076;DHT22;41951;49.022;12.066;2022-12-07T12:01:35;4.20;99.90
56076;DHT22;41951;49.022;12.066;2022-12-07T12:06:36;4.30;99.90
56076;DHT22;41951;49.022;12.066;2022-12-07T12:09:06;4.30;99.90
56076;DHT22;41951;49.022;12.066;2022-12-07T12:12:11;4.30;99.90
56076;DHT22;41951;49.022;12.066;2022-12-07T12:17:44;4.30;99.90
56076;DHT22;41951;49.022;12.066;2022-12-07T12:22:45;4.20;99.90
56076;DHT22;41951;49.022;12.066;2022-12-07T12:25:46;4.20;99.90
56076;DHT22;41951;49.022;12.066;2022-12-07T12:28:04;4.20;99.90
56076;DHT22;41951;49.022;12.066;2022-12-07T12:33:03;4.00;99.90
56076;DHT22;41951;49.022;12.066;2022-12-07T12:35:36;4.00;99.90
56076;DHT22;41951;49.022;12.066;2022-12-07T12:38:24;4.00;99.90
56076;DHT22;41951;49.022;12.066;2022-12-07T12:40:50;3.90;99.90
56076;DHT22;41951;49.022;12.066;2022-12-07T12:43:43;3.80;99.90
56076;DHT22;41951;49.022;12.066;2022-12-07T12:48:54;3.90;99.90
56076;DHT22;41951;49.022;12.066;2022-12-07T12:51:40;3.90;99.90
56076;DHT22;41951;49.022;12.066;2022-12-07T12:57:24;4.00;99.90
56076;DHT22;41951;49.022;12.066;2022-12-07T13:04:58;4.00;99.90
56076;DHT22;41951;49.022;12.066;2022-12-07T13:15:45;4.00;99.90
56076;DHT22;41951;49.022;12.066;2022-12-07T13:29:11;4.00;99.90
56076;DHT22;41951;49.022;12.066;2022-12-07T13:31:53;4.10;99.90
56076;DHT22;41951;49.022;12.066;2022-12-07T13:34:35;4.10;99.90
56076;DHT22;41951;49.022;12.066;2022-12-07T13:37:14;4.00;99.90
56076;DHT22;41951;49.022;12.066;2022-12-07T13:40:02;4.10;99.90
56076;DHT22;41951;49.022;12.066;2022-12-07T13:42:40;4.10;99.90
56076;DHT22;41951;49.022;12.066;2022-12-07T13:45:38;4.10;99.90
56076;DHT22;41951;49.022;12.066;2022-12-07T13:48:35;4.10;99.90
56076;DHT22;41951;49.022;12.066;2022-12-07T13:51:03;4.10;99.90
56076;DHT22;41951;49.022;12.066;2022-12-07T13:53:29;4.10;99.90
56076;DHT22;41951;49.022;12.066;2022-12-07T13:56:00;4.10;99.90
56076;DHT22;41951;49.022;12.066;2022-12-07T13:58:29;4.10;99.90
56076;DHT22;41951;49.022;12.066;2022-12-07T14:00:56;4.10;99.90
56076;DHT22;41951;49.022;12.066;2022-12-07T14:03:33;4.20;99.90
56076;DHT22;41951;49.022;12.066;2022-12-07T14:06:24;4.10;99.90
56076;DHT22;41951;49.022;12.066;2022-12-07T14:09:05;4.80;99.90
56076;DHT22;41951;49.022;12.066;2022-12-07T14:11:31;4.20;99.90
56076;DHT22;41951;49.022;12.066;2022-12-07T14:14:00;4.20;99.90
56076;DHT22;41951;49.022;12.066;2022-12-07T14:16:34;4.20;99.90
56076;DHT22;41951;49.022;12.066;2022-12-07T14:19:03;4.20;99.90
56076;DHT22;41951;49.022;12.066;2022-12-07T14:21:31;4.20;99.90
56076;DHT22;41951;49.022;12.066;2022-12-07T14:26:35;4.20;99.90
56076;DHT22;41951;49.022;12.066;2022-12-07T14:29:20;4.20;99.90
56076;DHT22;41951;49.022;12.066;2022-12-07T14:31:46;4.10;99.90
56076;DHT22;41951;49.022;12.066;2022-12-07T14:34:12;4.10;99.90
56076;DHT22;41951;49.022;12.066;2022-12-07T14:36:38;4.10;99.90
56076;DHT22;41951;49.022;12.066;2022-12-07T14:39:03;4.10;99.90
56076;DHT22;41951;49.022;12.066;2022-12-07T14:41:29;4.10;99.90
56076;DHT22;41951;49.022;12.066;2022-12-07T14:44:13;4.10;99.90
56076;DHT22;41951;49.022;12.066;2022-12-07T14:46:39;4.00;99.90
56076;DHT22;41951;49.022;12.066;2022-12-07T14:49:04;4.10;99.90
56076;DHT22;41951;49.022;12.066;2022-12-07T14:51:30;4.00;99.90
56076;DHT22;41951;49.022;12.066;2022-12-07T14:53:56;4.10;99.90
56076;DHT22;41951;49.022;12.066;2022-12-07T14:56:22;4.00;99.90
56076;DHT22;41951;49.022;12.066;2022-12-07T14:58:48;4.00;99.90
56076;DHT22;41951;49.022;12.066;2022-12-07T15:01:14;4.00;99.90
56076;DHT22;41951;49.022;12.066;2022-12-07T15:03:39;4.00;99.90
56076;DHT22;41951;49.022;12.066;2022-12-07T15:06:06;4.00;99.90
56076;DHT22;41951;49.022;12.066;2022-12-07T15:08:32;3.90;99.90
56076;DHT22;41951;49.022;12.066;2022-12-07T15:10:58;4.00;99.90
56076;DHT22;41951;49.022;12.066;2022-12-07T15:13:23;4.00;99.90
56076;DHT22;41951;49.022;12.066;2022-12-07T15:16:11;4.00;99.90
56076;DHT22;41951;49.022;12.066;2022-12-07T15:18:38;4.00;99.90
56076;DHT22;41951;49.022;12.066;2022-12-07T15:21:04;3.90;99.90
56076;DHT22;41951;49.022;12.066;2022-12-07T15:23:29;3.90;99.90
56076;DHT22;41951;49.022;12.066;2022-12-07T15:25:56;3.90;99.90
56076;DHT22;41951;49.022;12.066;2022-12-07T15:28:22;3.90;99.90
56076;DHT22;41951;49.022;12.066;2022-12-07T15:30:47;3.90;99.90
56076;DHT22;41951;49.022;12.066;2022-12-07T15:33:13;3.90;99.90
56076;DHT22;41951;49.022;12.066;2022-12-07T15:35:40;3.90;99.90
56076;DHT22;41951;49.022;12.066;2022-12-07T15:38:06;3.90;99.90
56076;DHT22;41951;49.022;12.066;2022-12-07T15:40:31;3.80;99.90
56076;DHT22;41951;49.022;12.066;2022-12-07T15:42:57;3.80;99.90
56076;DHT22;41951;49.022;12.066;2022-12-07T15:45:23;3.80;99.90
56076;DHT22;41951;49.022;12.066;2022-12-07T15:47:48;3.80;99.90
56076;DHT22;41951;49.022;12.066;2022-12-07T15:50:15;3.80;99.90
56076;DHT22;41951;49.022;12.066;2022-12-07T15:52:41;3.80;99.90
56076;DHT22;41951;49.022;12.066;2022-12-07T15:55:08;3.80;99.90
56076;DHT22;41951;49.022;12.066;2022-12-07T15:57:36;3.80;99.90
56076;DHT22;41951;49.022;12.066;2022-12-07T16:00:03;3.70;99.90
56076;DHT22;41951;49.022;12.066;2022-12-07T16:02:29;3.70;99.90
56076;DHT22;41951;49.022;12.066;2022-12-07T16:04:54;3.70;99.90
56076;DHT22;41951;49.022;12.066;2022-12-07T16:07:20;3.70;99.90
56076;DHT22;41951;49.022;12.066;2022-12-07T16:09:46;3.70;99.90
56076;DHT22;41951;49.022;12.066;2022-12-07T16:12:12;3.70;99.90
56076;DHT22;41951;49.022;12.066;2022-12-07T16:14:39;3.70;99.90
56076;DHT22;41951;49.022;12.066;2022-12-07T16:17:06;3.60;99.90
56076;DHT22;41951;49.022;12.066;2022-12-07T16:19:32;3.60;99.90
56076;DHT22;41951;49.022;12.066;2022-12-07T16:21:58;3.60;99.90
56076;DHT22;41951;49.022;12.066;2022-12-07T16:24:24;3.60;99.90
56076;DHT22;41951;49.022;12.066;2022-12-07T16:26:50;3.60;99.90
56076;DHT22;41951;49.022;12.066;2022-12-07T16:29:19;3.60;99.90
56076;DHT22;41951;49.022;12.066;2022-12-07T16:31:44;3.60;99.90
56076;DHT22;41951;49.022;12.066;2022-12-07T16:34:10;3.60;99.90
56076;DHT22;41951;49.022;12.066;2022-12-07T16:36:36;3.60;99.90
56076;DHT22;41951;49.022;12.066;2022-12-07T16:39:02;3.60;99.90
56076;DHT22;41951;49.022;12.066;2022-12-07T16:41:28;3.60;99.90
56076;DHT22;41951;49.022;12.066;2022-12-07T16:43:54;3.60;99.90
56076;DHT22;41951;49.022;12.066;2022-12-07T16:46:19;3.60;99.90
56076;DHT22;41951;49.022;12.066;2022-12-07T16:48:45;3.60;99.90
56076;DHT22;41951;49.022;12.066;2022-12-07T16:51:12;3.60;99.90
56076;DHT22;41951;49.022;12.066;2022-12-07T16:53:39;3.60;99.90
56076;DHT22;41951;49.022;12.066;2022-12-07T16:56:10;3.60;99.90
56076;DHT22;41951;49.022;12.066;2022-12-07T16:58:36;3.60;99.90
56076;DHT22;41951;49.022;12.066;2022-12-07T17:01:13;3.60;99.90
56076;DHT22;41951;49.022;12.066;2022-12-07T17:03:39;3.60;99.90
56076;DHT22;41951;49.022;12.066;2022-12-07T17:06:21;3.60;99.90
56076;DHT22;41951;49.022;12.066;2022-12-07T17:08:48;3.60;99.90
56076;DHT22;41951;49.022;12.066;2022-12-07T17:11:29;3.60;99.90
56076;DHT22;41951;49.022;12.066;2022-12-07T17:13:58;3.60;99.90
56076;DHT22;41951;49.022;12.066;2022-12-07T17:16:42;3.60;99.90
56076;DHT22;41951;49.022;12.066;2022-12-07T17:19:11;3.60;99.90
56076;DHT22;41951;49.022;12.066;2022-12-07T17:21:37;3.60;99.90
56076;DHT22;41951;49.022;12.066;2022-12-07T17:24:04;3.60;99.90
56076;DHT22;41951;49.022;12.066;2022-12-07T17:26:30;3.60;99.90
56076;DHT22;41951;49.022;12.066;2022-12-07T17:28:57;3.60;99.90
56076;DHT22;41951;49.022;12.066;2022-12-07T17:31:23;3.60;99.90